createdAt,value
2018-09-22T00:01:33.699Z,101093.70
2018-09-22T00:04:10.405Z,101103.25
2018-09-22T00:06:46.856Z,101101.56
2018-09-22T00:09:22.957Z,101093.32
2018-09-22T00:14:22.046Z,101101.19
2018-09-22T00:16:58.250Z,101101.19
2018-09-22T00:19:36.139Z,101105.22
2018-09-22T00:22:13.509Z,101106.91
2018-09-22T00:24:52.190Z,101106.06
2018-09-22T00:27:30.475Z,101107.71
2018-09-22T00:30:08.591Z,101104.72
2018-09-22T00:32:45.722Z,101109.59
2018-09-22T00:35:23.852Z,101104.21
2018-09-22T00:38:03.202Z,101109.59
2018-09-22T00:40:41.166Z,101108.42
2018-09-22T00:43:20.009Z,101113.80
2018-09-22T00:45:57.585Z,101111.83
2018-09-22T00:48:34.746Z,101106.95
2018-09-22T00:51:12.101Z,101111.52
2018-09-22T00:53:48.903Z,101109.01
2018-09-22T00:56:26.618Z,101106.31
2018-09-22T00:59:04.651Z,101119.47
2018-09-22T01:01:41.763Z,101115.73
2018-09-22T01:04:17.517Z,101120.31
2018-09-22T01:06:53.305Z,101106.16
2018-09-22T01:09:29.241Z,101119.47
2018-09-22T01:12:05.859Z,101123.80
2018-09-22T01:14:42.909Z,101127.67
2018-09-22T01:17:19.506Z,101118.25
2018-09-22T01:19:55.718Z,101122.80
2018-09-22T01:22:32.818Z,101118.97
2018-09-22T01:25:10.493Z,101128.89
2018-09-22T01:27:47.709Z,101129.73
2018-09-22T01:30:25.074Z,101128.55
2018-09-22T01:33:02.208Z,101138.31
2018-09-22T01:35:39.027Z,101137.97
2018-09-22T01:38:15.934Z,101142.01
2018-09-22T01:40:53.195Z,101141.20
2018-09-22T01:43:30.444Z,101144.91
2018-09-22T01:46:07.030Z,101149.65
2018-09-22T01:48:44.368Z,101152.34
2018-09-22T01:51:21.895Z,101151.00
2018-09-22T01:53:58.919Z,101155.41
2018-09-22T01:56:36.072Z,101159.27
2018-09-22T01:59:15.308Z,101160.78
2018-09-22T02:01:52.297Z,101157.46
2018-09-22T02:04:29.699Z,101164.69
2018-09-22T02:07:06.720Z,101165.23
2018-09-22T02:09:44.942Z,101167.59
2018-09-22T02:12:22.926Z,101172.13
2018-09-22T02:15:30.724Z,101175.73
2018-09-22T02:18:08.443Z,101181.95
2018-09-22T02:20:46.756Z,101173.95
2018-09-22T02:23:23.404Z,101184.30
2018-09-22T02:26:02.377Z,101181.61
2018-09-22T02:28:39.407Z,101184.00
2018-09-22T02:31:17.591Z,101191.73
2018-09-22T02:33:54.384Z,101193.28
2018-09-22T02:36:31.494Z,101197.19
2018-09-22T02:39:08.127Z,101196.34
2018-09-22T02:41:45.634Z,101200.24
2018-09-22T02:44:22.949Z,101199.73
2018-09-22T02:47:00.402Z,101201.29
2018-09-22T02:49:38.231Z,101206.84
2018-09-22T02:52:16.253Z,101210.77
2018-09-22T02:54:53.772Z,101212.92
2018-09-22T02:57:32.730Z,101216.28
2018-09-22T03:00:10.389Z,101223.00
2018-09-22T03:02:49.732Z,101230.94
2018-09-22T03:05:29.415Z,101242.73
2018-09-22T03:08:07.632Z,101242.41
2018-09-22T03:10:45.337Z,101239.41
2018-09-22T03:13:23.015Z,101241.45
2018-09-22T03:16:00.797Z,101252.21
2018-09-22T03:18:38.474Z,101256.75
2018-09-22T03:21:15.771Z,101261.80
2018-09-22T03:23:53.054Z,101260.14
2018-09-22T03:26:30.500Z,101261.48
2018-09-22T03:31:39.452Z,101263.90
2018-09-22T03:34:16.599Z,101270.11
2018-09-22T03:36:55.252Z,101271.46
2018-09-22T03:39:32.172Z,101273.81
2018-09-22T03:42:10.146Z,101278.38
2018-09-22T03:44:47.847Z,101276.19
2018-09-22T03:47:25.080Z,101283.08
2018-09-22T03:50:01.778Z,101288.16
2018-09-22T03:52:39.147Z,101283.28
2018-09-22T03:55:17.307Z,101285.66
2018-09-22T03:57:54.630Z,101287.70
2018-09-22T04:00:31.776Z,101289.72
2018-09-22T04:03:11.458Z,101300.17
2018-09-22T04:05:48.978Z,101302.52
2018-09-22T04:08:25.799Z,101306.75
2018-09-22T04:11:03.671Z,101308.59
2018-09-22T04:13:41.326Z,101309.13
2018-09-22T04:16:18.295Z,101304.31
2018-09-22T04:18:56.350Z,101316.02
2018-09-22T04:21:34.427Z,101317.86
2018-09-22T04:24:16.183Z,101321.08
2018-09-22T04:26:54.901Z,101320.24
2018-09-22T04:29:31.744Z,101325.63
2018-09-22T04:32:09.388Z,101323.12
2018-09-22T04:34:45.680Z,101329.50
2018-09-22T04:37:21.721Z,101324.97
2018-09-22T04:39:57.742Z,101331.70
2018-09-22T04:42:33.985Z,101332.53
2018-09-22T04:45:10.142Z,101330.52
2018-09-22T04:47:45.871Z,101338.58
2018-09-22T04:50:22.382Z,101335.24
2018-09-22T04:52:58.386Z,101337.92
2018-09-22T04:55:34.595Z,101337.12
2018-09-22T04:58:10.999Z,101336.59
2018-09-22T05:00:46.978Z,101331.74
2018-09-22T05:03:23.168Z,101330.91
2018-09-22T05:05:59.196Z,101334.28
2018-09-22T05:08:34.981Z,101333.45
2018-09-22T05:11:10.816Z,101338.67
2018-09-22T05:13:46.982Z,101338.17
2018-09-22T05:16:23.719Z,101340.02
2018-09-22T05:18:59.907Z,101334.84
2018-09-22T05:21:35.925Z,101336.33
2018-09-22T05:24:12.191Z,101331.76
2018-09-22T05:26:50.120Z,101330.75
2018-09-22T05:29:25.900Z,101337.63
2018-09-22T05:32:01.851Z,101337.95
2018-09-22T05:34:38.222Z,101336.95
2018-09-22T05:37:14.325Z,101342.28
2018-09-22T05:39:50.355Z,101341.27
2018-09-22T05:42:26.165Z,101339.88
2018-09-22T05:45:02.170Z,101347.08
2018-09-22T05:47:37.989Z,101342.66
2018-09-22T05:50:14.341Z,101344.99
2018-09-22T05:52:50.735Z,101346.98
2018-09-22T05:56:53.936Z,101340.72
2018-09-22T05:59:30.001Z,101344.09
2018-09-22T06:02:05.898Z,101340.05
2018-09-22T06:06:25.700Z,101336.02
2018-09-22T06:09:01.818Z,101332.29
2018-09-22T06:11:37.894Z,101333.27
2018-09-22T06:14:13.990Z,101326.55
2018-09-22T06:16:50.045Z,101330.39
2018-09-22T06:19:25.993Z,101334.42
2018-09-22T06:22:01.706Z,101335.77
2018-09-22T06:24:37.831Z,101341.14
2018-09-22T06:27:13.757Z,101334.77
2018-09-22T06:29:49.986Z,101333.42
2018-09-22T06:32:25.837Z,101329.38
2018-09-22T06:35:02.004Z,101331.03
2018-09-22T06:37:37.816Z,101334.77
2018-09-22T06:40:13.837Z,101336.41
2018-09-22T06:42:49.691Z,101342.13
2018-09-22T06:45:25.762Z,101331.38
2018-09-22T06:48:01.861Z,101324.31
2018-09-22T06:50:38.019Z,101321.42
2018-09-22T06:53:13.830Z,101322.97
2018-09-22T06:55:49.403Z,101319.27
2018-09-22T06:58:24.997Z,101323.81
2018-09-22T07:01:01.193Z,101320.78
2018-09-22T07:03:37.217Z,101321.63
2018-09-22T07:06:13.020Z,101327.84
2018-09-22T07:08:49.026Z,101332.08
2018-09-22T07:11:25.153Z,101330.39
2018-09-22T07:14:01.026Z,101330.20
2018-09-22T07:16:37.026Z,101329.38
2018-09-22T07:19:12.944Z,101330.39
2018-09-22T07:21:53.100Z,101331.73
2018-09-22T07:24:29.040Z,101326.02
2018-09-22T07:27:05.216Z,101323.86
2018-09-22T07:29:40.844Z,101322.69
2018-09-22T07:32:17.033Z,101321.34
2018-09-22T07:34:52.917Z,101318.65
2018-09-22T07:37:29.037Z,101312.97
2018-09-22T07:40:05.038Z,101310.78
2018-09-22T07:42:40.714Z,101306.75
2018-09-22T07:45:17.040Z,101305.91
2018-09-22T07:47:53.028Z,101303.75
2018-09-22T07:50:29.041Z,101308.79
2018-09-22T07:53:04.944Z,101301.73
2018-09-22T07:55:40.702Z,101306.30
2018-09-22T07:58:17.837Z,101299.44
2018-09-22T08:00:54.203Z,101301.92
2018-09-22T08:03:29.868Z,101303.97
2018-09-22T08:06:06.082Z,101299.59
2018-09-22T08:08:42.002Z,101301.47
2018-09-22T08:11:18.052Z,101299.48
2018-09-22T08:13:54.013Z,101299.98
2018-09-22T08:16:29.857Z,101298.64
2018-09-22T08:19:05.703Z,101304.72
2018-09-22T08:21:41.684Z,101296.31
2018-09-22T08:24:17.845Z,101299.20
2018-09-22T08:26:53.937Z,101310.25
2018-09-22T08:29:29.918Z,101308.80
2018-09-22T08:32:06.200Z,101306.61
2018-09-22T08:34:42.199Z,101307.12
2018-09-22T08:37:18.087Z,101302.78
2018-09-22T08:39:53.995Z,101303.78
2018-09-22T08:42:29.873Z,101309.16
2018-09-22T08:45:05.905Z,101312.84
2018-09-22T08:47:42.013Z,101311.50
2018-09-22T08:50:18.570Z,101304.14
2018-09-22T08:52:54.429Z,101299.30
2018-09-22T08:55:30.458Z,101298.45
2018-09-22T08:58:06.628Z,101291.40
2018-09-22T09:00:43.057Z,101295.93
2018-09-22T09:03:19.045Z,101294.59
2018-09-22T09:05:55.303Z,101292.06
2018-09-22T09:08:31.246Z,101296.59
2018-09-22T09:11:07.049Z,101294.45
2018-09-22T09:13:43.086Z,101287.89
2018-09-22T09:16:19.069Z,101287.58
2018-09-22T09:18:55.052Z,101292.11
2018-09-22T09:21:31.053Z,101287.44
2018-09-22T09:24:07.077Z,101295.80
2018-09-22T09:26:43.993Z,101294.34
2018-09-22T09:29:20.257Z,101294.00
2018-09-22T09:31:55.912Z,101289.63
2018-09-22T09:34:32.108Z,101285.16
2018-09-22T09:37:08.334Z,101290.33
2018-09-22T09:39:44.748Z,101285.34
2018-09-22T09:42:20.829Z,101285.00
2018-09-22T09:44:56.853Z,101281.17
2018-09-22T09:47:32.855Z,101282.52
2018-09-22T09:50:09.257Z,101285.89
2018-09-22T09:52:45.273Z,101286.73
2018-09-22T09:55:21.285Z,101276.15
2018-09-22T09:57:57.105Z,101274.50
2018-09-22T10:00:37.259Z,101278.69
2018-09-22T10:03:13.265Z,101275.19
2018-09-22T10:05:49.633Z,101272.36
2018-09-22T10:08:25.661Z,101274.20
2018-09-22T10:11:02.489Z,101271.17
2018-09-22T10:13:39.113Z,101268.19
2018-09-22T10:16:15.264Z,101271.56
2018-09-22T10:18:51.269Z,101270.22
2018-09-22T10:21:27.265Z,101269.88
2018-09-22T10:24:03.451Z,101269.88
2018-09-22T10:26:39.270Z,101263.86
2018-09-22T10:29:15.429Z,101262.71
2018-09-22T10:31:51.727Z,101262.71
2018-09-22T10:34:27.849Z,101265.89
2018-09-22T10:37:04.298Z,101259.69
2018-09-22T10:39:40.286Z,101263.41
2018-09-22T10:42:16.992Z,101255.20
2018-09-22T10:44:53.108Z,101259.42
2018-09-22T10:47:29.173Z,101257.43
2018-09-22T10:50:05.278Z,101257.93
2018-09-22T10:52:41.173Z,101260.28
2018-09-22T10:55:17.123Z,101261.31
2018-09-22T10:57:53.116Z,101256.10
2018-09-22T11:00:28.967Z,101250.42
2018-09-22T11:03:04.953Z,101260.52
2018-09-22T11:05:41.449Z,101266.38
2018-09-22T11:08:17.114Z,101264.39
2018-09-22T11:10:53.111Z,101267.58
2018-09-22T11:13:29.289Z,101269.95
2018-09-22T11:16:05.116Z,101272.77
2018-09-22T11:18:41.890Z,101272.45
2018-09-22T11:21:18.073Z,101268.59
2018-09-22T11:23:54.080Z,101272.11
2018-09-22T11:26:30.139Z,101268.28
2018-09-22T11:29:06.289Z,101269.28
2018-09-22T11:31:42.283Z,101268.13
2018-09-22T11:34:18.057Z,101270.16
2018-09-22T11:36:54.038Z,101263.45
2018-09-22T11:39:30.062Z,101265.30
2018-09-22T11:42:06.009Z,101265.48
2018-09-22T11:44:42.065Z,101261.11
2018-09-22T11:47:17.913Z,101264.33
2018-09-22T11:49:53.763Z,101262.84
2018-09-22T11:52:29.933Z,101261.99
2018-09-22T11:55:06.085Z,101262.84
2018-09-22T11:57:43.114Z,101258.16
2018-09-22T12:00:19.461Z,101256.81
2018-09-22T12:02:55.786Z,101258.31
2018-09-22T12:05:32.046Z,101257.51
2018-09-22T12:08:08.126Z,101255.33
2018-09-22T12:10:43.953Z,101259.51
2018-09-22T12:13:20.133Z,101261.88
2018-09-22T12:15:56.043Z,101265.91
2018-09-22T12:18:31.950Z,101271.78
2018-09-22T12:21:08.117Z,101266.59
2018-09-22T12:23:43.992Z,101266.75
2018-09-22T12:26:20.175Z,101270.47
2018-09-22T12:28:56.147Z,101270.13
2018-09-22T12:31:32.334Z,101272.81
2018-09-22T12:34:08.914Z,101261.42
2018-09-22T12:36:45.324Z,101256.59
2018-09-22T12:39:21.942Z,101265.98
2018-09-22T12:41:57.904Z,101275.88
2018-09-22T12:44:34.153Z,101268.52
2018-09-22T12:47:10.360Z,101269.33
2018-09-22T12:49:46.332Z,101269.86
2018-09-22T12:52:22.347Z,101274.04
2018-09-22T12:54:58.515Z,101278.06
2018-09-22T12:57:34.791Z,101276.41
2018-09-22T13:00:11.010Z,101279.09
2018-09-22T13:02:47.185Z,101281.44
2018-09-22T13:05:23.336Z,101280.09
2018-09-22T13:07:59.271Z,101290.83
2018-09-22T13:10:35.126Z,101296.73
2018-09-22T13:13:10.950Z,101298.23
2018-09-22T13:15:47.100Z,101301.94
2018-09-22T13:18:23.161Z,101304.63
2018-09-22T13:20:58.767Z,101294.89
2018-09-22T13:23:35.050Z,101300.75
2018-09-22T13:26:11.041Z,101298.26
2018-09-22T13:28:47.174Z,101295.23
2018-09-22T13:31:23.142Z,101301.44
2018-09-22T13:33:59.248Z,101292.73
2018-09-22T13:36:35.186Z,101301.63
2018-09-22T13:39:15.083Z,101300.78
2018-09-22T13:41:50.939Z,101305.00
2018-09-22T13:44:27.342Z,101300.81
2018-09-22T13:47:03.385Z,101297.79
2018-09-22T13:49:39.342Z,101295.83
2018-09-22T13:52:15.298Z,101299.35
2018-09-22T13:54:51.893Z,101298.31
2018-09-22T13:57:28.155Z,101297.50
2018-09-22T14:00:04.999Z,101299.38
2018-09-22T14:02:40.829Z,101295.23
2018-09-22T14:05:16.803Z,101299.09
2018-09-22T14:07:52.828Z,101302.61
2018-09-22T14:10:29.121Z,101302.45
2018-09-22T14:13:04.982Z,101293.63
2018-09-22T14:15:41.169Z,101299.14
2018-09-22T14:18:16.798Z,101292.80
2018-09-22T14:20:53.354Z,101288.94
2018-09-22T14:23:29.197Z,101286.62
2018-09-22T14:26:05.183Z,101290.48
2018-09-22T14:28:41.468Z,101293.16
2018-09-22T14:31:17.549Z,101294.84
2018-09-22T14:33:53.856Z,101296.05
2018-09-22T14:37:46.189Z,101307.95
2018-09-22T14:40:23.493Z,101300.93
2018-09-22T14:42:59.822Z,101297.06
2018-09-22T14:45:35.886Z,101307.97
2018-09-22T14:48:12.119Z,101299.61
2018-09-22T14:50:48.171Z,101304.63
2018-09-22T14:53:23.997Z,101311.51
2018-09-22T14:56:00.794Z,101312.97
2018-09-22T14:58:37.120Z,101309.62
2018-09-22T15:01:13.198Z,101312.67
2018-09-22T15:03:49.430Z,101316.84
2018-09-22T15:06:25.524Z,101314.84
2018-09-22T15:09:02.112Z,101323.06
2018-09-22T15:11:39.434Z,101312.36
2018-09-22T15:14:15.958Z,101320.05
2018-09-22T15:16:51.954Z,101321.57
2018-09-22T15:19:27.814Z,101322.75
2018-09-22T15:22:01.424Z,101329.13
2018-09-22T15:24:37.589Z,101329.77
2018-09-22T15:27:14.385Z,101324.59
2018-09-22T15:29:50.209Z,101328.45
2018-09-22T15:32:27.562Z,101320.09
2018-09-22T15:35:04.207Z,101322.92
2018-09-22T15:37:40.205Z,101318.77
2018-09-22T15:41:21.334Z,101323.12
2018-09-22T15:43:57.406Z,101318.59
2018-09-22T15:46:33.390Z,101328.98
2018-09-22T15:49:09.383Z,101324.80
2018-09-22T15:51:46.006Z,101328.98
2018-09-22T15:54:22.006Z,101329.31
2018-09-22T15:56:55.923Z,101325.64
2018-09-22T15:59:31.882Z,101331.16
2018-09-22T16:02:08.049Z,101335.18
2018-09-22T16:04:44.117Z,101327.81
2018-09-22T16:07:20.221Z,101325.13
2018-09-22T16:09:56.428Z,101326.11
2018-09-22T16:12:32.614Z,101329.48
2018-09-22T16:15:08.600Z,101323.10
2018-09-22T16:17:44.621Z,101322.42
2018-09-22T16:20:21.002Z,101319.75
2018-09-22T16:22:57.394Z,101323.77
2018-09-22T16:25:33.593Z,101323.78
2018-09-22T16:28:09.573Z,101325.45
2018-09-22T16:30:45.394Z,101329.15
2018-09-22T16:33:22.245Z,101328.80
2018-09-22T16:35:58.346Z,101320.10
2018-09-22T16:38:34.428Z,101324.30
2018-09-22T16:41:11.082Z,101320.59
2018-09-22T16:43:47.230Z,101325.80
2018-09-22T16:46:23.232Z,101326.62
2018-09-22T16:48:59.176Z,101322.92
2018-09-22T16:51:35.605Z,101327.45
2018-09-22T16:54:11.941Z,101329.45
2018-09-22T16:56:48.121Z,101324.94
2018-09-22T16:59:24.170Z,101330.11
2018-09-22T17:02:00.181Z,101333.80
2018-09-22T17:04:36.197Z,101331.95
2018-09-22T17:07:12.452Z,101337.63
2018-09-22T17:09:48.597Z,101333.78
2018-09-22T17:12:24.425Z,101335.47
2018-09-22T17:15:00.421Z,101337.28
2018-09-22T17:17:36.262Z,101341.13
2018-09-22T17:20:12.123Z,101342.81
2018-09-22T17:22:48.137Z,101343.47
2018-09-22T17:25:24.620Z,101341.64
2018-09-22T17:28:00.648Z,101336.59
2018-09-22T17:30:36.636Z,101333.61
2018-09-22T17:33:13.573Z,101326.73
2018-09-22T17:35:50.005Z,101327.22
2018-09-22T17:38:26.215Z,101330.56
2018-09-22T17:41:02.425Z,101327.73
2018-09-22T17:43:39.253Z,101328.73
2018-09-22T17:46:15.009Z,101323.53
2018-09-22T17:48:51.023Z,101312.31
2018-09-22T17:51:27.424Z,101305.92
2018-09-22T17:54:03.374Z,101308.45
2018-09-22T17:56:39.434Z,101304.74
2018-09-22T17:59:15.437Z,101310.45
2018-09-22T18:01:51.429Z,101308.43
2018-09-22T18:04:28.970Z,101310.92
2018-09-22T18:07:05.261Z,101311.59
2018-09-22T18:09:41.892Z,101312.43
2018-09-22T18:12:17.913Z,101311.94
2018-09-22T18:14:54.421Z,101317.61
2018-09-22T18:17:30.484Z,101313.94
2018-09-22T18:20:06.610Z,101311.72
2018-09-22T18:22:42.465Z,101308.89
2018-09-22T18:25:18.664Z,101306.02
2018-09-22T18:27:54.473Z,101305.84
2018-09-22T18:30:29.958Z,101310.52
2018-09-22T18:33:05.571Z,101307.84
2018-09-22T18:35:41.126Z,101301.48
2018-09-22T18:38:16.612Z,101295.62
2018-09-22T18:40:52.117Z,101301.64
2018-09-22T18:43:27.900Z,101296.59
2018-09-22T18:46:03.450Z,101307.16
2018-09-22T18:48:39.273Z,101299.42
2018-09-22T18:51:15.456Z,101290.39
2018-09-22T18:53:51.058Z,101296.22
2018-09-22T18:56:26.272Z,101292.86
2018-09-22T18:59:01.835Z,101288.14
2018-09-22T19:01:37.453Z,101275.08
2018-09-22T19:04:14.044Z,101279.57
2018-09-22T19:06:49.517Z,101285.09
2018-09-22T19:09:24.885Z,101288.43
2018-09-22T19:12:00.251Z,101281.41
2018-09-22T19:14:43.406Z,101279.20
2018-09-22T19:18:21.613Z,101277.83
2018-09-22T19:21:00.830Z,101272.42
2018-09-22T19:23:43.452Z,101271.73
2018-09-22T19:26:23.845Z,101262.16
2018-09-22T19:29:09.497Z,101262.61
2018-09-22T19:31:48.826Z,101260.61
2018-09-22T19:34:29.185Z,101256.02
2018-09-22T19:37:08.618Z,101256.02
2018-09-22T19:39:51.889Z,101255.63
2018-09-22T19:42:37.857Z,101253.94
2018-09-22T19:45:18.489Z,101251.72
2018-09-22T19:48:30.914Z,101247.34
2018-09-22T19:51:11.579Z,101244.61
2018-09-22T19:53:48.418Z,101244.11
2018-09-22T19:56:24.648Z,101234.87
2018-09-22T19:59:00.658Z,101235.86
2018-09-22T20:01:36.461Z,101230.13
2018-09-22T20:04:12.332Z,101234.62
2018-09-22T20:06:48.188Z,101232.42
2018-09-22T20:09:24.261Z,101223.86
2018-09-22T20:12:00.223Z,101222.12
2018-09-22T20:14:36.291Z,101216.71
2018-09-22T20:17:12.815Z,101211.17
2018-09-22T20:19:48.895Z,101203.77
2018-09-22T20:22:25.477Z,101199.87
2018-09-22T20:25:01.514Z,101203.02
2018-09-22T20:27:37.543Z,101196.11
2018-09-22T20:30:13.731Z,101191.52
2018-09-22T20:32:50.209Z,101184.64
2018-09-22T20:35:26.181Z,101181.56
2018-09-22T20:38:02.487Z,101182.05
2018-09-22T20:40:38.319Z,101177.96
2018-09-22T20:43:14.502Z,101173.53
2018-09-22T20:45:51.930Z,101167.80
2018-09-22T20:48:28.131Z,101162.13
2018-09-22T20:51:04.330Z,101166.06
2018-09-22T20:53:40.503Z,101165.17
2018-09-22T20:56:16.537Z,101157.24
2018-09-22T20:58:52.441Z,101158.72
2018-09-22T21:01:28.544Z,101158.16
2018-09-22T21:04:04.165Z,101155.41
2018-09-22T21:06:41.477Z,101149.67
2018-09-22T21:09:17.309Z,101146.08
2018-09-22T21:11:53.918Z,101144.87
2018-09-22T21:14:30.170Z,101143.16
2018-09-22T21:17:06.448Z,101145.44
2018-09-22T21:19:42.700Z,101142.38
2018-09-22T21:22:19.304Z,101139.83
2018-09-22T21:24:55.328Z,101130.21
2018-09-22T21:27:32.310Z,101132.53
2018-09-22T21:30:08.565Z,101122.41
2018-09-22T21:32:44.889Z,101122.21
2018-09-22T21:35:21.127Z,101117.80
2018-09-22T21:37:57.516Z,101112.89
2018-09-22T21:40:33.506Z,101104.75
2018-09-22T21:43:09.672Z,101094.12
2018-09-22T21:45:46.947Z,101085.84
2018-09-22T21:48:22.980Z,101094.17
2018-09-22T21:50:59.252Z,101085.59
2018-09-22T21:53:35.339Z,101087.38
2018-09-22T21:56:10.336Z,101082.33
2018-09-22T21:58:46.529Z,101073.21
2018-09-22T22:01:26.393Z,101077.37
2018-09-22T22:04:02.465Z,101072.62
2018-09-22T22:06:39.467Z,101075.14
2018-09-22T22:09:16.977Z,101074.61
2018-09-22T22:11:53.015Z,101069.89
2018-09-22T22:14:28.990Z,101071.03
2018-09-22T22:17:05.349Z,101073.39
2018-09-22T22:19:41.358Z,101067.83
2018-09-22T22:22:17.706Z,101072.50
2018-09-22T22:24:53.992Z,101067.92
2018-09-22T22:27:30.032Z,101062.38
2018-09-22T22:30:06.285Z,101062.16
2018-09-22T22:32:42.318Z,101067.67
2018-09-22T22:35:18.217Z,101071.20
2018-09-22T22:37:54.236Z,101075.37
2018-09-22T22:40:30.207Z,101068.09
2018-09-22T22:43:06.294Z,101067.30
2018-09-22T22:45:42.368Z,101067.09
2018-09-22T22:48:18.894Z,101070.92
2018-09-22T22:50:55.366Z,101066.38
2018-09-22T22:53:31.486Z,101067.51
2018-09-22T22:56:07.690Z,101076.93
2018-09-22T22:58:44.258Z,101075.41
2018-09-22T23:01:20.276Z,101067.34
2018-09-22T23:03:56.223Z,101067.63
2018-09-22T23:06:32.181Z,101071.17
2018-09-22T23:09:11.009Z,101065.45
2018-09-22T23:11:47.394Z,101064.10
2018-09-22T23:14:23.542Z,101053.03
2018-09-22T23:16:59.543Z,101054.51
2018-09-22T23:19:35.350Z,101044.75
2018-09-22T23:22:11.381Z,101047.78
2018-09-22T23:24:47.756Z,101045.09
2018-09-22T23:27:24.010Z,101043.73
2018-09-22T23:30:00.613Z,101040.72
2018-09-22T23:32:36.542Z,101034.49
2018-09-22T23:35:12.339Z,101034.49
2018-09-22T23:37:48.098Z,101036.38
2018-09-22T23:40:24.021Z,101034.70
2018-09-22T23:43:00.378Z,101030.16
2018-09-22T23:45:36.245Z,101030.16
2018-09-22T23:48:12.130Z,101029.32
2018-09-22T23:50:48.116Z,101021.75
2018-09-22T23:53:24.890Z,101027.97
2018-09-22T23:56:00.994Z,101029.52
2018-09-22T23:58:37.291Z,101021.45
